sensor_id;sensor_type;location;lat;lon;timestamp;P1;durP1;ratioP1;P2;durP2;ratioP2
62030;SDS011;62035;52.094;5.112;2022-12-20T00:01:25;6.57;;;3.42;;
62030;SDS011;62035;52.094;5.112;2022-12-20T00:03:56;7.15;;;3.28;;
62030;SDS011;62035;52.094;5.112;2022-12-20T00:06:30;6.70;;;3.70;;
62030;SDS011;62035;52.094;5.112;2022-12-20T00:09:01;7.75;;;3.92;;
62030;SDS011;62035;52.094;5.112;2022-12-20T00:11:32;5.95;;;3.25;;
62030;SDS011;62035;52.094;5.112;2022-12-20T00:14:01;5.03;;;2.80;;
62030;SDS011;62035;52.094;5.112;2022-12-20T00:16:29;7.78;;;3.40;;
62030;SDS011;62035;52.094;5.112;2022-12-20T00:18:57;7.38;;;2.92;;
62030;SDS011;62035;52.094;5.112;2022-12-20T00:21:28;4.63;;;2.45;;
62030;SDS011;62035;52.094;5.112;2022-12-20T00:23:58;5.75;;;3.22;;
62030;SDS011;62035;52.094;5.112;2022-12-20T00:26:27;10.18;;;3.60;;
62030;SDS011;62035;52.094;5.112;2022-12-20T00:28:59;6.30;;;2.90;;
62030;SDS011;62035;52.094;5.112;2022-12-20T00:31:28;5.35;;;3.15;;
62030;SDS011;62035;52.094;5.112;2022-12-20T00:33:57;7.60;;;3.20;;
62030;SDS011;62035;52.094;5.112;2022-12-20T00:36:26;5.85;;;2.83;;
62030;SDS011;62035;52.094;5.112;2022-12-20T00:38:57;6.40;;;3.20;;
62030;SDS011;62035;52.094;5.112;2022-12-20T00:41:27;4.95;;;2.40;;
62030;SDS011;62035;52.094;5.112;2022-12-20T00:43:58;5.32;;;2.55;;
62030;SDS011;62035;52.094;5.112;2022-12-20T00:46:26;4.90;;;2.78;;
62030;SDS011;62035;52.094;5.112;2022-12-20T00:48:54;4.40;;;2.70;;
62030;SDS011;62035;52.094;5.112;2022-12-20T00:51:24;5.88;;;2.90;;
62030;SDS011;62035;52.094;5.112;2022-12-20T00:54:01;5.00;;;2.80;;
62030;SDS011;62035;52.094;5.112;2022-12-20T00:56:28;6.50;;;2.85;;
62030;SDS011;62035;52.094;5.112;2022-12-20T00:58:56;4.85;;;2.72;;
62030;SDS011;62035;52.094;5.112;2022-12-20T01:01:26;8.93;;;2.95;;
62030;SDS011;62035;52.094;5.112;2022-12-20T01:03:56;4.55;;;2.55;;
62030;SDS011;62035;52.094;5.112;2022-12-20T01:06:25;4.07;;;2.63;;
62030;SDS011;62035;52.094;5.112;2022-12-20T01:08:54;5.50;;;2.72;;
62030;SDS011;62035;52.094;5.112;2022-12-20T01:11:23;4.75;;;2.60;;
62030;SDS011;62035;52.094;5.112;2022-12-20T01:13:53;5.57;;;2.83;;
62030;SDS011;62035;52.094;5.112;2022-12-20T01:16:27;6.78;;;2.90;;
62030;SDS011;62035;52.094;5.112;2022-12-20T01:18:56;7.18;;;3.00;;
62030;SDS011;62035;52.094;5.112;2022-12-20T01:21:25;4.53;;;2.97;;
62030;SDS011;62035;52.094;5.112;2022-12-20T01:23:54;7.63;;;3.10;;
62030;SDS011;62035;52.094;5.112;2022-12-20T01:26:23;4.97;;;3.08;;
62030;SDS011;62035;52.094;5.112;2022-12-20T01:31:24;6.63;;;2.80;;
62030;SDS011;62035;52.094;5.112;2022-12-20T01:33:54;6.78;;;3.42;;
62030;SDS011;62035;52.094;5.112;2022-12-20T01:36:23;5.30;;;2.90;;
62030;SDS011;62035;52.094;5.112;2022-12-20T01:38:54;7.00;;;3.00;;
62030;SDS011;62035;52.094;5.112;2022-12-20T01:41:23;5.53;;;3.13;;
62030;SDS011;62035;52.094;5.112;2022-12-20T01:43:54;5.45;;;3.15;;
62030;SDS011;62035;52.094;5.112;2022-12-20T01:46:26;6.85;;;3.30;;
62030;SDS011;62035;52.094;5.112;2022-12-20T01:48:58;7.68;;;3.85;;
62030;SDS011;62035;52.094;5.112;2022-12-20T01:51:33;7.20;;;3.28;;
62030;SDS011;62035;52.094;5.112;2022-12-20T01:54:07;9.05;;;3.45;;
62030;SDS011;62035;52.094;5.112;2022-12-20T01:56:41;7.53;;;3.30;;
62030;SDS011;62035;52.094;5.112;2022-12-20T01:59:15;7.82;;;3.47;;
62030;SDS011;62035;52.094;5.112;2022-12-20T02:01:45;7.32;;;4.30;;
62030;SDS011;62035;52.094;5.112;2022-12-20T02:04:13;7.70;;;3.38;;
62030;SDS011;62035;52.094;5.112;2022-12-20T02:06:40;7.00;;;3.42;;
62030;SDS011;62035;52.094;5.112;2022-12-20T02:09:08;5.60;;;3.40;;
62030;SDS011;62035;52.094;5.112;2022-12-20T02:11:48;6.20;;;3.80;;
62030;SDS011;62035;52.094;5.112;2022-12-20T02:14:41;7.15;;;4.00;;
62030;SDS011;62035;52.094;5.112;2022-12-20T02:17:29;7.18;;;3.55;;
62030;SDS011;62035;52.094;5.112;2022-12-20T02:20:21;6.53;;;3.38;;
62030;SDS011;62035;52.094;5.112;2022-12-20T02:26:30;6.53;;;3.45;;
62030;SDS011;62035;52.094;5.112;2022-12-20T02:29:36;9.90;;;3.92;;
62030;SDS011;62035;52.094;5.112;2022-12-20T02:32:13;6.88;;;3.40;;
62030;SDS011;62035;52.094;5.112;2022-12-20T02:34:48;8.70;;;3.72;;
62030;SDS011;62035;52.094;5.112;2022-12-20T02:37:16;4.85;;;2.90;;
62030;SDS011;62035;52.094;5.112;2022-12-20T02:39:44;6.18;;;3.22;;
62030;SDS011;62035;52.094;5.112;2022-12-20T02:42:13;12.13;;;3.45;;
62030;SDS011;62035;52.094;5.112;2022-12-20T02:44:48;7.43;;;3.90;;
62030;SDS011;62035;52.094;5.112;2022-12-20T02:47:43;7.78;;;3.58;;
62030;SDS011;62035;52.094;5.112;2022-12-20T02:50:17;6.22;;;3.17;;
62030;SDS011;62035;52.094;5.112;2022-12-20T02:52:51;5.95;;;3.35;;
62030;SDS011;62035;52.094;5.112;2022-12-20T02:55:21;5.22;;;3.10;;
62030;SDS011;62035;52.094;5.112;2022-12-20T02:58:01;6.45;;;3.15;;
62030;SDS011;62035;52.094;5.112;2022-12-20T03:00:37;6.25;;;3.40;;
62030;SDS011;62035;52.094;5.112;2022-12-20T03:03:13;6.85;;;3.30;;
62030;SDS011;62035;52.094;5.112;2022-12-20T03:05:51;6.07;;;3.47;;
62030;SDS011;62035;52.094;5.112;2022-12-20T03:08:21;4.93;;;3.03;;
62030;SDS011;62035;52.094;5.112;2022-12-20T03:10:50;6.15;;;3.03;;
62030;SDS011;62035;52.094;5.112;2022-12-20T03:13:21;5.45;;;3.17;;
62030;SDS011;62035;52.094;5.112;2022-12-20T03:15:49;7.68;;;3.25;;
62030;SDS011;62035;52.094;5.112;2022-12-20T03:18:19;9.30;;;3.33;;
62030;SDS011;62035;52.094;5.112;2022-12-20T03:20:47;4.82;;;3.10;;
62030;SDS011;62035;52.094;5.112;2022-12-20T03:23:14;8.20;;;3.00;;
62030;SDS011;62035;52.094;5.112;2022-12-20T03:25:42;4.43;;;2.60;;
62030;SDS011;62035;52.094;5.112;2022-12-20T03:28:10;8.48;;;2.85;;
62030;SDS011;62035;52.094;5.112;2022-12-20T03:30:37;4.57;;;2.80;;
62030;SDS011;62035;52.094;5.112;2022-12-20T03:33:05;6.30;;;2.97;;
62030;SDS011;62035;52.094;5.112;2022-12-20T03:35:34;8.68;;;3.13;;
62030;SDS011;62035;52.094;5.112;2022-12-20T03:38:01;5.15;;;2.85;;
62030;SDS011;62035;52.094;5.112;2022-12-20T03:40:29;5.55;;;2.78;;
62030;SDS011;62035;52.094;5.112;2022-12-20T03:42:57;6.20;;;2.63;;
62030;SDS011;62035;52.094;5.112;2022-12-20T03:45:24;6.88;;;3.22;;
62030;SDS011;62035;52.094;5.112;2022-12-20T03:47:52;4.97;;;2.83;;
62030;SDS011;62035;52.094;5.112;2022-12-20T03:50:19;6.38;;;2.53;;
62030;SDS011;62035;52.094;5.112;2022-12-20T03:52:48;5.63;;;3.15;;
62030;SDS011;62035;52.094;5.112;2022-12-20T03:55:16;7.07;;;2.78;;
62030;SDS011;62035;52.094;5.112;2022-12-20T03:57:44;4.63;;;2.70;;
62030;SDS011;62035;52.094;5.112;2022-12-20T04:00:12;6.55;;;2.85;;
62030;SDS011;62035;52.094;5.112;2022-12-20T04:02:41;7.32;;;3.20;;
62030;SDS011;62035;52.094;5.112;2022-12-20T04:05:08;4.88;;;2.70;;
62030;SDS011;62035;52.094;5.112;2022-12-20T04:07:36;6.00;;;2.80;;
62030;SDS011;62035;52.094;5.112;2022-12-20T04:10:06;4.25;;;2.60;;
62030;SDS011;62035;52.094;5.112;2022-12-20T04:12:35;5.00;;;3.10;;
62030;SDS011;62035;52.094;5.112;2022-12-20T04:15:03;4.82;;;2.72;;
62030;SDS011;62035;52.094;5.112;2022-12-20T04:17:32;7.78;;;2.78;;
62030;SDS011;62035;52.094;5.112;2022-12-20T04:20:00;4.80;;;2.78;;
62030;SDS011;62035;52.094;5.112;2022-12-20T04:22:43;6.25;;;2.70;;
62030;SDS011;62035;52.094;5.112;2022-12-20T04:25:12;4.80;;;3.03;;
62030;SDS011;62035;52.094;5.112;2022-12-20T04:27:42;4.57;;;2.60;;
62030;SDS011;62035;52.094;5.112;2022-12-20T04:30:10;7.93;;;3.45;;
62030;SDS011;62035;52.094;5.112;2022-12-20T04:32:39;5.25;;;2.58;;
62030;SDS011;62035;52.094;5.112;2022-12-20T04:35:07;7.15;;;2.90;;
62030;SDS011;62035;52.094;5.112;2022-12-20T04:37:36;7.63;;;2.97;;
62030;SDS011;62035;52.094;5.112;2022-12-20T04:40:04;6.53;;;2.55;;
62030;SDS011;62035;52.094;5.112;2022-12-20T04:42:34;9.02;;;2.83;;
62030;SDS011;62035;52.094;5.112;2022-12-20T04:45:02;4.78;;;2.90;;
62030;SDS011;62035;52.094;5.112;2022-12-20T04:47:30;7.65;;;2.88;;
62030;SDS011;62035;52.094;5.112;2022-12-20T04:49:58;7.85;;;2.78;;
62030;SDS011;62035;52.094;5.112;2022-12-20T04:52:25;7.25;;;2.80;;
62030;SDS011;62035;52.094;5.112;2022-12-20T04:55:10;4.72;;;2.75;;
62030;SDS011;62035;52.094;5.112;2022-12-20T04:57:39;9.15;;;3.28;;
62030;SDS011;62035;52.094;5.112;2022-12-20T05:00:07;5.32;;;2.85;;
62030;SDS011;62035;52.094;5.112;2022-12-20T05:02:36;5.30;;;3.00;;
62030;SDS011;62035;52.094;5.112;2022-12-20T05:05:04;4.82;;;2.97;;
62030;SDS011;62035;52.094;5.112;2022-12-20T05:07:32;7.20;;;3.42;;
62030;SDS011;62035;52.094;5.112;2022-12-20T05:10:00;4.97;;;2.97;;
62030;SDS011;62035;52.094;5.112;2022-12-20T05:12:27;5.72;;;3.17;;
62030;SDS011;62035;52.094;5.112;2022-12-20T05:14:56;7.53;;;3.88;;
62030;SDS011;62035;52.094;5.112;2022-12-20T05:17:24;8.75;;;3.47;;
62030;SDS011;62035;52.094;5.112;2022-12-20T05:19:51;5.45;;;3.33;;
62030;SDS011;62035;52.094;5.112;2022-12-20T05:22:19;7.68;;;3.20;;
62030;SDS011;62035;52.094;5.112;2022-12-20T05:25:04;7.10;;;3.10;;
62030;SDS011;62035;52.094;5.112;2022-12-20T05:27:52;5.95;;;3.20;;
62030;SDS011;62035;52.094;5.112;2022-12-20T05:30:21;4.57;;;3.15;;
62030;SDS011;62035;52.094;5.112;2022-12-20T05:32:49;5.10;;;3.10;;
62030;SDS011;62035;52.094;5.112;2022-12-20T05:35:17;7.60;;;3.40;;
62030;SDS011;62035;52.094;5.112;2022-12-20T05:37:45;5.53;;;3.00;;
62030;SDS011;62035;52.094;5.112;2022-12-20T05:40:12;5.13;;;3.10;;
62030;SDS011;62035;52.094;5.112;2022-12-20T05:42:40;7.05;;;2.95;;
62030;SDS011;62035;52.094;5.112;2022-12-20T05:45:08;6.97;;;2.92;;
62030;SDS011;62035;52.094;5.112;2022-12-20T05:47:38;5.65;;;3.28;;
62030;SDS011;62035;52.094;5.112;2022-12-20T05:50:06;7.10;;;3.50;;
62030;SDS011;62035;52.094;5.112;2022-12-20T05:52:35;7.07;;;3.25;;
62030;SDS011;62035;52.094;5.112;2022-12-20T05:55:03;7.32;;;3.00;;
62030;SDS011;62035;52.094;5.112;2022-12-20T05:57:31;5.28;;;3.10;;
62030;SDS011;62035;52.094;5.112;2022-12-20T05:59:59;9.77;;;3.58;;
62030;SDS011;62035;52.094;5.112;2022-12-20T06:02:27;6.75;;;3.13;;
62030;SDS011;62035;52.094;5.112;2022-12-20T06:04:56;5.35;;;2.90;;
62030;SDS011;62035;52.094;5.112;2022-12-20T06:07:24;8.02;;;3.35;;
62030;SDS011;62035;52.094;5.112;2022-12-20T06:09:53;8.00;;;3.85;;
62030;SDS011;62035;52.094;5.112;2022-12-20T06:12:21;5.80;;;2.72;;
62030;SDS011;62035;52.094;5.112;2022-12-20T06:14:49;3.85;;;2.85;;
62030;SDS011;62035;52.094;5.112;2022-12-20T06:17:17;4.63;;;2.70;;
62030;SDS011;62035;52.094;5.112;2022-12-20T06:19:46;5.30;;;2.80;;
62030;SDS011;62035;52.094;5.112;2022-12-20T06:22:15;5.40;;;2.78;;
62030;SDS011;62035;52.094;5.112;2022-12-20T06:24:43;9.30;;;2.90;;
62030;SDS011;62035;52.094;5.112;2022-12-20T06:27:11;9.45;;;2.60;;
62030;SDS011;62035;52.094;5.112;2022-12-20T06:29:39;4.97;;;2.72;;
62030;SDS011;62035;52.094;5.112;2022-12-20T06:32:07;6.70;;;2.25;;
62030;SDS011;62035;52.094;5.112;2022-12-20T06:34:35;6.13;;;2.30;;
62030;SDS011;62035;52.094;5.112;2022-12-20T06:37:02;5.55;;;2.20;;
62030;SDS011;62035;52.094;5.112;2022-12-20T06:39:32;5.10;;;2.78;;
62030;SDS011;62035;52.094;5.112;2022-12-20T06:41:59;7.53;;;2.63;;
62030;SDS011;62035;52.094;5.112;2022-12-20T06:44:27;10.57;;;2.80;;
62030;SDS011;62035;52.094;5.112;2022-12-20T06:46:55;4.18;;;2.33;;
62030;SDS011;62035;52.094;5.112;2022-12-20T06:49:23;5.85;;;2.60;;
62030;SDS011;62035;52.094;5.112;2022-12-20T06:51:50;9.88;;;2.60;;
62030;SDS011;62035;52.094;5.112;2022-12-20T06:54:18;3.63;;;2.30;;
62030;SDS011;62035;52.094;5.112;2022-12-20T06:56:48;8.02;;;2.50;;
62030;SDS011;62035;52.094;5.112;2022-12-20T06:59:15;4.25;;;2.40;;
62030;SDS011;62035;52.094;5.112;2022-12-20T07:01:43;8.82;;;2.42;;
62030;SDS011;62035;52.094;5.112;2022-12-20T07:04:11;6.13;;;2.30;;
62030;SDS011;62035;52.094;5.112;2022-12-20T07:06:39;5.22;;;2.30;;
62030;SDS011;62035;52.094;5.112;2022-12-20T07:09:06;6.55;;;2.50;;
62030;SDS011;62035;52.094;5.112;2022-12-20T07:11:36;5.53;;;2.22;;
62030;SDS011;62035;52.094;5.112;2022-12-20T07:14:06;4.35;;;2.20;;
62030;SDS011;62035;52.094;5.112;2022-12-20T07:16:34;8.60;;;2.25;;
62030;SDS011;62035;52.094;5.112;2022-12-20T07:19:02;4.60;;;2.25;;
62030;SDS011;62035;52.094;5.112;2022-12-20T07:21:30;5.35;;;2.38;;
62030;SDS011;62035;52.094;5.112;2022-12-20T07:23:58;6.93;;;2.45;;
62030;SDS011;62035;52.094;5.112;2022-12-20T07:26:26;5.57;;;2.35;;
62030;SDS011;62035;52.094;5.112;2022-12-20T07:28:54;5.80;;;2.28;;
62030;SDS011;62035;52.094;5.112;2022-12-20T07:31:23;4.82;;;2.28;;
62030;SDS011;62035;52.094;5.112;2022-12-20T07:33:51;5.15;;;1.95;;
62030;SDS011;62035;52.094;5.112;2022-12-20T07:36:18;7.05;;;2.20;;
62030;SDS011;62035;52.094;5.112;2022-12-20T07:38:46;6.80;;;2.42;;
62030;SDS011;62035;52.094;5.112;2022-12-20T07:41:15;4.30;;;2.22;;
62030;SDS011;62035;52.094;5.112;2022-12-20T07:43:44;5.10;;;2.20;;
62030;SDS011;62035;52.094;5.112;2022-12-20T07:46:13;3.85;;;2.00;;
62030;SDS011;62035;52.094;5.112;2022-12-20T07:48:43;4.85;;;2.17;;
62030;SDS011;62035;52.094;5.112;2022-12-20T07:51:12;5.97;;;2.35;;
62030;SDS011;62035;52.094;5.112;2022-12-20T07:53:47;6.90;;;2.40;;
62030;SDS011;62035;52.094;5.112;2022-12-20T07:56:20;6.03;;;2.65;;
62030;SDS011;62035;52.094;5.112;2022-12-20T07:58:49;5.47;;;2.60;;
62030;SDS011;62035;52.094;5.112;2022-12-20T08:01:23;3.22;;;2.20;;
62030;SDS011;62035;52.094;5.112;2022-12-20T08:03:56;6.15;;;2.30;;
62030;SDS011;62035;52.094;5.112;2022-12-20T08:06:28;5.72;;;2.33;;
62030;SDS011;62035;52.094;5.112;2022-12-20T08:08:57;3.42;;;2.00;;
62030;SDS011;62035;52.094;5.112;2022-12-20T08:11:30;5.60;;;2.33;;
62030;SDS011;62035;52.094;5.112;2022-12-20T08:16:32;6.15;;;2.50;;
62030;SDS011;62035;52.094;5.112;2022-12-20T08:19:02;4.80;;;2.42;;
62030;SDS011;62035;52.094;5.112;2022-12-20T08:21:30;6.13;;;2.42;;
62030;SDS011;62035;52.094;5.112;2022-12-20T08:23:57;5.90;;;2.53;;
62030;SDS011;62035;52.094;5.112;2022-12-20T08:26:25;6.93;;;2.85;;
62030;SDS011;62035;52.094;5.112;2022-12-20T08:28:53;6.45;;;2.15;;
62030;SDS011;62035;52.094;5.112;2022-12-20T08:31:22;4.13;;;2.25;;
62030;SDS011;62035;52.094;5.112;2022-12-20T08:33:52;7.78;;;2.67;;
62030;SDS011;62035;52.094;5.112;2022-12-20T08:36:22;6.57;;;2.00;;
62030;SDS011;62035;52.094;5.112;2022-12-20T08:38:50;7.57;;;2.53;;
62030;SDS011;62035;52.094;5.112;2022-12-20T08:41:17;7.55;;;2.45;;
62030;SDS011;62035;52.094;5.112;2022-12-20T08:43:45;4.65;;;2.22;;
62030;SDS011;62035;52.094;5.112;2022-12-20T08:46:13;4.97;;;2.45;;
62030;SDS011;62035;52.094;5.112;2022-12-20T08:48:41;6.45;;;2.40;;
62030;SDS011;62035;52.094;5.112;2022-12-20T08:51:09;9.60;;;2.03;;
62030;SDS011;62035;52.094;5.112;2022-12-20T08:53:39;5.47;;;2.72;;
62030;SDS011;62035;52.094;5.112;2022-12-20T08:56:08;4.85;;;2.42;;
62030;SDS011;62035;52.094;5.112;2022-12-20T08:58:39;6.20;;;2.60;;
62030;SDS011;62035;52.094;5.112;2022-12-20T09:01:08;6.07;;;2.55;;
62030;SDS011;62035;52.094;5.112;2022-12-20T09:03:39;4.43;;;2.63;;
62030;SDS011;62035;52.094;5.112;2022-12-20T09:06:08;4.40;;;2.60;;
62030;SDS011;62035;52.094;5.112;2022-12-20T09:11:09;5.95;;;2.42;;
62030;SDS011;62035;52.094;5.112;2022-12-20T09:13:39;6.60;;;2.70;;
62030;SDS011;62035;52.094;5.112;2022-12-20T09:16:10;6.10;;;2.83;;
62030;SDS011;62035;52.094;5.112;2022-12-20T09:18:41;6.22;;;2.92;;
62030;SDS011;62035;52.094;5.112;2022-12-20T09:21:10;8.02;;;3.17;;
62030;SDS011;62035;52.094;5.112;2022-12-20T09:23:37;9.15;;;2.85;;
62030;SDS011;62035;52.094;5.112;2022-12-20T09:26:10;8.07;;;3.30;;
62030;SDS011;62035;52.094;5.112;2022-12-20T09:28:39;7.90;;;2.75;;
62030;SDS011;62035;52.094;5.112;2022-12-20T09:31:09;6.80;;;3.20;;
62030;SDS011;62035;52.094;5.112;2022-12-20T09:33:39;5.43;;;3.03;;
62030;SDS011;62035;52.094;5.112;2022-12-20T09:36:09;4.03;;;2.60;;
62030;SDS011;62035;52.094;5.112;2022-12-20T09:38:38;6.93;;;3.20;;
62030;SDS011;62035;52.094;5.112;2022-12-20T09:41:14;6.93;;;3.08;;
62030;SDS011;62035;52.094;5.112;2022-12-20T09:43:51;11.65;;;3.67;;
62030;SDS011;62035;52.094;5.112;2022-12-20T09:46:20;10.50;;;3.95;;
62030;SDS011;62035;52.094;5.112;2022-12-20T09:48:51;10.13;;;3.08;;
62030;SDS011;62035;52.094;5.112;2022-12-20T09:51:24;5.53;;;3.13;;
62030;SDS011;62035;52.094;5.112;2022-12-20T09:54:22;7.68;;;2.97;;
62030;SDS011;62035;52.094;5.112;2022-12-20T09:57:09;5.53;;;3.20;;
62030;SDS011;62035;52.094;5.112;2022-12-20T09:59:54;10.52;;;3.58;;
62030;SDS011;62035;52.094;5.112;2022-12-20T10:02:24;9.38;;;3.17;;
62030;SDS011;62035;52.094;5.112;2022-12-20T10:04:53;7.40;;;3.13;;
62030;SDS011;62035;52.094;5.112;2022-12-20T10:07:25;8.13;;;3.60;;
62030;SDS011;62035;52.094;5.112;2022-12-20T10:10:20;12.05;;;3.30;;
62030;SDS011;62035;52.094;5.112;2022-12-20T10:13:22;17.10;;;3.40;;
62030;SDS011;62035;52.094;5.112;2022-12-20T10:16:12;7.55;;;3.70;;
62030;SDS011;62035;52.094;5.112;2022-12-20T10:19:02;11.35;;;3.58;;
62030;SDS011;62035;52.094;5.112;2022-12-20T10:21:51;10.10;;;3.80;;
62030;SDS011;62035;52.094;5.112;2022-12-20T10:24:31;9.00;;;3.60;;
62030;SDS011;62035;52.094;5.112;2022-12-20T10:27:03;7.20;;;3.28;;
62030;SDS011;62035;52.094;5.112;2022-12-20T10:29:41;8.43;;;3.40;;
62030;SDS011;62035;52.094;5.112;2022-12-20T10:32:11;10.45;;;4.30;;
62030;SDS011;62035;52.094;5.112;2022-12-20T10:34:43;8.07;;;3.58;;
62030;SDS011;62035;52.094;5.112;2022-12-20T10:37:21;13.38;;;4.28;;
62030;SDS011;62035;52.094;5.112;2022-12-20T10:39:50;9.98;;;3.92;;
62030;SDS011;62035;52.094;5.112;2022-12-20T10:42:26;12.43;;;4.43;;
62030;SDS011;62035;52.094;5.112;2022-12-20T10:45:08;7.43;;;3.65;;
62030;SDS011;62035;52.094;5.112;2022-12-20T10:47:57;7.00;;;4.05;;
62030;SDS011;62035;52.094;5.112;2022-12-20T10:50:27;9.23;;;3.95;;
62030;SDS011;62035;52.094;5.112;2022-12-20T10:53:02;11.55;;;4.13;;
62030;SDS011;62035;52.094;5.112;2022-12-20T10:55:46;9.43;;;3.88;;
62030;SDS011;62035;52.094;5.112;2022-12-20T10:58:15;7.88;;;4.32;;
62030;SDS011;62035;52.094;5.112;2022-12-20T11:01:03;8.25;;;4.05;;
62030;SDS011;62035;52.094;5.112;2022-12-20T11:06:28;7.60;;;4.22;;
62030;SDS011;62035;52.094;5.112;2022-12-20T11:09:24;9.90;;;4.43;;
62030;SDS011;62035;52.094;5.112;2022-12-20T11:11:58;7.20;;;4.35;;
62030;SDS011;62035;52.094;5.112;2022-12-20T11:14:32;8.23;;;4.05;;
62030;SDS011;62035;52.094;5.112;2022-12-20T11:17:04;11.52;;;4.50;;
62030;SDS011;62035;52.094;5.112;2022-12-20T11:19:58;10.73;;;4.38;;
62030;SDS011;62035;52.094;5.112;2022-12-20T11:22:45;14.00;;;5.13;;
62030;SDS011;62035;52.094;5.112;2022-12-20T11:25:35;11.40;;;4.70;;
62030;SDS011;62035;52.094;5.112;2022-12-20T11:28:29;9.77;;;4.65;;
62030;SDS011;62035;52.094;5.112;2022-12-20T11:31:19;14.88;;;5.10;;
62030;SDS011;62035;52.094;5.112;2022-12-20T11:33:58;12.40;;;4.47;;
62030;SDS011;62035;52.094;5.112;2022-12-20T11:36:49;11.07;;;5.15;;
62030;SDS011;62035;52.094;5.112;2022-12-20T11:39:38;9.48;;;4.85;;
62030;SDS011;62035;52.094;5.112;2022-12-20T11:42:19;7.70;;;4.93;;
62030;SDS011;62035;52.094;5.112;2022-12-20T11:45:01;7.85;;;4.70;;
62030;SDS011;62035;52.094;5.112;2022-12-20T11:47:46;10.32;;;5.15;;
62030;SDS011;62035;52.094;5.112;2022-12-20T11:50:47;10.18;;;4.85;;
62030;SDS011;62035;52.094;5.112;2022-12-20T11:53:31;9.82;;;5.32;;
62030;SDS011;62035;52.094;5.112;2022-12-20T11:56:06;10.23;;;5.57;;
62030;SDS011;62035;52.094;5.112;2022-12-20T11:58:45;11.35;;;5.63;;
62030;SDS011;62035;52.094;5.112;2022-12-20T12:01:20;10.40;;;5.65;;
62030;SDS011;62035;52.094;5.112;2022-12-20T12:04:01;8.52;;;5.95;;
62030;SDS011;62035;52.094;5.112;2022-12-20T12:09:14;10.35;;;5.82;;
62030;SDS011;62035;52.094;5.112;2022-12-20T12:11:52;11.48;;;5.93;;
62030;SDS011;62035;52.094;5.112;2022-12-20T12:14:29;10.45;;;5.65;;
62030;SDS011;62035;52.094;5.112;2022-12-20T12:17:11;10.25;;;6.28;;
62030;SDS011;62035;52.094;5.112;2022-12-20T12:19:49;11.15;;;5.85;;
62030;SDS011;62035;52.094;5.112;2022-12-20T12:22:30;12.40;;;6.28;;
62030;SDS011;62035;52.094;5.112;2022-12-20T12:25:04;8.00;;;5.90;;
62030;SDS011;62035;52.094;5.112;2022-12-20T12:27:43;10.93;;;5.60;;
62030;SDS011;62035;52.094;5.112;2022-12-20T12:30:12;12.43;;;5.93;;
62030;SDS011;62035;52.094;5.112;2022-12-20T12:32:43;9.27;;;5.80;;
62030;SDS011;62035;52.094;5.112;2022-12-20T12:35:29;10.82;;;6.20;;
62030;SDS011;62035;52.094;5.112;2022-12-20T12:44:47;8.40;;;5.93;;
62030;SDS011;62035;52.094;5.112;2022-12-20T12:47:23;10.07;;;5.22;;
62030;SDS011;62035;52.094;5.112;2022-12-20T12:50:05;12.75;;;5.75;;
62030;SDS011;62035;52.094;5.112;2022-12-20T12:52:47;9.07;;;5.95;;
62030;SDS011;62035;52.094;5.112;2022-12-20T13:01:07;12.02;;;6.47;;
62030;SDS011;62035;52.094;5.112;2022-12-20T13:03:41;12.00;;;6.10;;
62030;SDS011;62035;52.094;5.112;2022-12-20T13:06:50;8.77;;;5.90;;
62030;SDS011;62035;52.094;5.112;2022-12-20T13:09:39;9.70;;;6.40;;
62030;SDS011;62035;52.094;5.112;2022-12-20T13:18:35;10.15;;;6.85;;
62030;SDS011;62035;52.094;5.112;2022-12-20T13:21:16;9.18;;;6.35;;
62030;SDS011;62035;52.094;5.112;2022-12-20T13:30:14;9.18;;;7.07;;
62030;SDS011;62035;52.094;5.112;2022-12-20T13:36:54;9.75;;;6.75;;
62030;SDS011;62035;52.094;5.112;2022-12-20T13:39:29;8.25;;;6.07;;
62030;SDS011;62035;52.094;5.112;2022-12-20T13:42:12;10.55;;;6.75;;
62030;SDS011;62035;52.094;5.112;2022-12-20T13:44:53;12.15;;;6.80;;
62030;SDS011;62035;52.094;5.112;2022-12-20T13:53:06;10.55;;;6.63;;
62030;SDS011;62035;52.094;5.112;2022-12-20T13:55:45;8.55;;;6.50;;
62030;SDS011;62035;52.094;5.112;2022-12-20T13:58:15;9.40;;;6.72;;
62030;SDS011;62035;52.094;5.112;2022-12-20T14:00:47;8.23;;;6.63;;
62030;SDS011;62035;52.094;5.112;2022-12-20T14:03:20;7.90;;;6.28;;
62030;SDS011;62035;52.094;5.112;2022-12-20T14:05:53;10.50;;;6.68;;
62030;SDS011;62035;52.094;5.112;2022-12-20T14:08:30;10.40;;;7.32;;
62030;SDS011;62035;52.094;5.112;2022-12-20T14:11:08;8.88;;;6.93;;
62030;SDS011;62035;52.094;5.112;2022-12-20T14:13:38;9.80;;;7.18;;
62030;SDS011;62035;52.094;5.112;2022-12-20T14:16:09;8.60;;;7.10;;
62030;SDS011;62035;52.094;5.112;2022-12-20T14:18:45;10.48;;;7.53;;
62030;SDS011;62035;52.094;5.112;2022-12-20T14:21:15;10.23;;;7.88;;
62030;SDS011;62035;52.094;5.112;2022-12-20T14:23:45;8.65;;;7.50;;
62030;SDS011;62035;52.094;5.112;2022-12-20T14:26:18;13.00;;;7.63;;
62030;SDS011;62035;52.094;5.112;2022-12-20T14:28:51;12.73;;;7.93;;
62030;SDS011;62035;52.094;5.112;2022-12-20T14:31:23;10.57;;;7.63;;
62030;SDS011;62035;52.094;5.112;2022-12-20T14:36:31;9.40;;;7.57;;
62030;SDS011;62035;52.094;5.112;2022-12-20T14:39:09;11.05;;;7.88;;
62030;SDS011;62035;52.094;5.112;2022-12-20T14:41:54;12.73;;;8.38;;
62030;SDS011;62035;52.094;5.112;2022-12-20T14:44:24;12.05;;;8.13;;
62030;SDS011;62035;52.094;5.112;2022-12-20T14:46:54;10.13;;;8.90;;
62030;SDS011;62035;52.094;5.112;2022-12-20T14:49:26;10.75;;;8.60;;
62030;SDS011;62035;52.094;5.112;2022-12-20T14:52:06;10.35;;;8.60;;
62030;SDS011;62035;52.094;5.112;2022-12-20T14:54:42;16.10;;;9.18;;
62030;SDS011;62035;52.094;5.112;2022-12-20T14:57:19;12.65;;;8.80;;
62030;SDS011;62035;52.094;5.112;2022-12-20T14:59:58;11.38;;;9.25;;
62030;SDS011;62035;52.094;5.112;2022-12-20T15:02:36;10.95;;;8.52;;
62030;SDS011;62035;52.094;5.112;2022-12-20T15:08:21;10.52;;;8.73;;
62030;SDS011;62035;52.094;5.112;2022-12-20T15:10:56;12.23;;;9.18;;
62030;SDS011;62035;52.094;5.112;2022-12-20T15:13:30;15.02;;;9.40;;
62030;SDS011;62035;52.094;5.112;2022-12-20T15:16:00;15.75;;;10.15;;
62030;SDS011;62035;52.094;5.112;2022-12-20T15:18:31;13.65;;;9.02;;
62030;SDS011;62035;52.094;5.112;2022-12-20T15:21:01;12.90;;;9.50;;
62030;SDS011;62035;52.094;5.112;2022-12-20T15:23:36;11.60;;;9.18;;
62030;SDS011;62035;52.094;5.112;2022-12-20T15:26:13;15.15;;;10.80;;
62030;SDS011;62035;52.094;5.112;2022-12-20T15:28:43;13.23;;;9.77;;
62030;SDS011;62035;52.094;5.112;2022-12-20T15:31:12;16.58;;;11.70;;
62030;SDS011;62035;52.094;5.112;2022-12-20T15:33:43;13.50;;;10.98;;
62030;SDS011;62035;52.094;5.112;2022-12-20T15:36:14;14.50;;;10.68;;
62030;SDS011;62035;52.094;5.112;2022-12-20T15:38:45;13.70;;;10.63;;
62030;SDS011;62035;52.094;5.112;2022-12-20T15:41:15;19.88;;;11.75;;
62030;SDS011;62035;52.094;5.112;2022-12-20T15:43:48;17.33;;;10.88;;
62030;SDS011;62035;52.094;5.112;2022-12-20T15:46:19;14.70;;;10.85;;
62030;SDS011;62035;52.094;5.112;2022-12-20T15:48:47;14.77;;;11.75;;
62030;SDS011;62035;52.094;5.112;2022-12-20T15:51:18;15.35;;;12.18;;
62030;SDS011;62035;52.094;5.112;2022-12-20T15:53:54;16.15;;;11.70;;
62030;SDS011;62035;52.094;5.112;2022-12-20T15:56:22;20.60;;;12.35;;
62030;SDS011;62035;52.094;5.112;2022-12-20T15:58:52;17.55;;;10.77;;
62030;SDS011;62035;52.094;5.112;2022-12-20T16:01:21;13.93;;;11.27;;
62030;SDS011;62035;52.094;5.112;2022-12-20T16:03:55;11.98;;;9.93;;
62030;SDS011;62035;52.094;5.112;2022-12-20T16:06:24;14.02;;;10.52;;
62030;SDS011;62035;52.094;5.112;2022-12-20T16:08:51;15.70;;;10.85;;
62030;SDS011;62035;52.094;5.112;2022-12-20T16:11:21;15.70;;;12.10;;
62030;SDS011;62035;52.094;5.112;2022-12-20T16:13:52;14.55;;;10.73;;